LYTV/TIV METAR and TAF weather

Enter ICAO airport designator
Station Type Date Time Source
LYTV METAR 2020/07/08 00:00 UTC NOAA

LYTV 080000Z 02012G23KT CAVOK 22/06 Q1012


Station Type Date Time Source
LYTV Decoded METAR 2020/07/08 00:00 UTC NOAA

Tivat, Serbia and Montenegro (LYTV) 42-24N 018-44E 5M
Jul 07, 2020 - 08:00 PM EDT / 2020.07.08 0000 UTC
Wind: from the NNE (020 degrees) at 14 MPH (12 KT) gusting to 26 MPH (23 KT):0
Visibility: greater than 7 mile(s):0
Temperature: 71 F (22 C)
Dew Point: 42 F (6 C)
Relative Humidity: 35%
Pressure (altimeter): 29.88 in. Hg (1012 hPa)
ob: LYTV 080000Z 02012G23KT CAVOK 22/06 Q1012
cycle: 0

Station Type Date Time Source
LYTV TAF 2020/07/07 18:21 UTC NOAA

TAF LYTV 071700Z 0718/0818 02012KT CAVOK TX30/0814Z TN17/0803Z PROB40
TEMPO 0718/0804 02015G25KT
BECMG 0807/0809 22008KT

Example: see airport list